Time;durP1;ratioP1;P1;durP2;ratioP2;P2;SDS_P1;SDS_P2;PMS_P1;PMS_P2;Temp;Humidity;BMP_temperature;BMP_pressure;BME280_temperature;BME280_humidity;BME280_pressure;Samples;Min_cycle;Max_cycle;Signal;HPM_P1;HPM_P2
2024/01/25 00:00:57;;;;;;;10.60;3.20;;;;;;;6.56;88.68;99407.05;113152;239;38768;-70
2024/01/25 00:03:46;;;;;;;6.60;3.30;;;;;;;6.57;88.66;99405.81;113031;239;174856;-70
2024/01/25 00:06:21;;;;;;;10.10;3.30;;;;;;;6.57;88.48;99403.02;113130;239;38901;-70
2024/01/25 00:08:54;;;;;;;6.00;2.30;;;;;;;6.57;88.30;99401.63;113146;239;38355;-68
2024/01/25 00:11:31;;;;;;;9.90;3.20;;;;;;;6.55;88.09;99399.98;113144;239;38475;-70
2024/01/25 00:14:04;;;;;;;7.60;2.70;;;;;;;6.51;87.94;99394.59;112992;239;174855;-69
2024/01/25 00:16:41;;;;;;;7.40;2.10;;;;;;;6.48;87.89;99395.23;113128;239;40013;-70
2024/01/25 00:19:15;;;;;;;4.70;1.80;;;;;;;6.48;87.97;99396.28;113030;239;174871;-68
2024/01/25 00:21:48;;;;;;;6.30;2.60;;;;;;;6.46;87.97;99396.66;113109;239;38630;-67
2024/01/25 00:24:22;;;;;;;6.10;2.20;;;;;;;6.46;87.80;99399.80;113126;239;38327;-69
2024/01/25 00:26:56;;;;;;;4.50;2.00;;;;;;;6.44;87.62;99400.72;113195;239;38348;-70
2024/01/25 00:29:29;;;;;;;6.00;1.40;;;;;;;6.44;87.78;99403.32;113142;239;39450;-70
2024/01/25 00:32:03;;;;;;;5.60;1.50;;;;;;;6.43;87.47;99396.80;113157;239;40243;-70
2024/01/25 00:34:39;;;;;;;4.10;1.50;;;;;;;6.42;87.32;99400.12;113135;239;38722;-68
2024/01/25 00:37:14;;;;;;;3.70;1.70;;;;;;;6.42;87.20;99397.50;113117;239;38866;-67
2024/01/25 00:39:50;;;;;;;5.00;2.20;;;;;;;6.45;87.43;99402.25;113153;239;38576;-68
2024/01/25 00:42:25;;;;;;;4.80;2.20;;;;;;;6.46;87.52;99410.02;113038;239;174841;-68
2024/01/25 00:45:00;;;;;;;3.70;1.50;;;;;;;6.45;87.50;99419.23;113152;239;39037;-68
2024/01/25 00:47:36;;;;;;;3.00;1.20;;;;;;;6.44;87.56;99418.73;113135;239;39472;-68
2024/01/25 00:50:12;;;;;;;5.10;2.30;;;;;;;6.45;87.78;99425.48;113158;239;39999;-68
2024/01/25 00:52:47;;;;;;;4.30;1.40;;;;;;;6.47;87.93;99426.30;113137;239;38836;-68
2024/01/25 00:55:22;;;;;;;5.80;1.50;;;;;;;6.47;88.07;99430.79;113161;239;38600;-70
2024/01/25 00:57:59;;;;;;;6.80;1.40;;;;;;;6.46;88.28;99427.52;113165;239;38926;-70
2024/01/25 01:00:34;;;;;;;4.60;1.30;;;;;;;6.44;88.57;99424.98;113180;239;38317;-70
2024/01/25 01:03:11;;;;;;;6.40;1.50;;;;;;;6.43;88.72;99426.08;113147;239;38748;-70
2024/01/25 01:05:46;;;;;;;5.10;1.40;;;;;;;6.41;88.76;99433.23;113150;239;38542;-68
2024/01/25 01:08:21;;;;;;;4.10;1.90;;;;;;;6.41;88.88;99430.30;113169;239;38665;-68
2024/01/25 01:10:55;;;;;;;4.80;1.30;;;;;;;6.40;89.03;99425.30;113176;239;38844;-70
2024/01/25 01:13:29;;;;;;;11.30;2.60;;;;;;;6.39;89.28;99421.88;113143;239;40201;-70
2024/01/25 01:16:03;;;;;;;8.00;2.20;;;;;;;6.38;89.36;99422.07;112927;239;38330;-70
2024/01/25 01:18:38;;;;;;;4.60;1.30;;;;;;;6.36;89.50;99419.57;113182;239;38956;-70
2024/01/25 01:21:11;;;;;;;10.50;3.70;;;;;;;6.35;89.57;99423.74;113137;239;39542;-68
2024/01/25 01:23:46;;;;;;;5.60;2.00;;;;;;;6.34;89.58;99417.39;113145;239;39776;-68
2024/01/25 01:26:20;;;;;;;6.00;1.80;;;;;;;6.34;89.65;99422.73;113150;239;38666;-70
2024/01/25 01:28:54;;;;;;;6.00;1.90;;;;;;;6.37;89.76;99410.88;113147;239;39743;-69
2024/01/25 01:31:27;;;;;;;8.20;2.70;;;;;;;6.34;89.67;99409.05;113124;239;38380;-70
2024/01/25 01:34:01;;;;;;;6.60;1.60;;;;;;;6.34;89.89;99418.95;113143;239;39008;-68
2024/01/25 01:36:35;;;;;;;9.10;2.50;;;;;;;6.30;89.71;99414.92;113146;239;38465;-68
2024/01/25 01:39:08;;;;;;;7.30;2.50;;;;;;;6.30;89.70;99411.48;113136;239;38686;-69
2024/01/25 01:41:42;;;;;;;6.50;2.00;;;;;;;6.29;89.71;99421.90;112998;239;172360;-70
2024/01/25 01:44:16;;;;;;;7.80;2.10;;;;;;;6.30;89.93;99423.59;113157;239;38300;-68
2024/01/25 01:46:50;;;;;;;6.00;1.70;;;;;;;6.33;89.97;99420.01;113155;239;38488;-68
2024/01/25 01:49:23;;;;;;;5.10;1.80;;;;;;;6.32;89.82;99410.36;113138;239;39188;-68
2024/01/25 01:51:57;;;;;;;9.50;2.70;;;;;;;6.31;89.88;99415.25;113151;239;38311;-68
2024/01/25 01:54:31;;;;;;;5.50;2.40;;;;;;;6.29;89.89;99408.20;113125;239;39564;-70
2024/01/25 01:57:05;;;;;;;7.40;2.60;;;;;;;6.27;89.80;99408.80;113139;239;38343;-70
2024/01/25 01:59:39;;;;;;;7.90;2.80;;;;;;;6.26;89.72;99408.86;113139;239;39657;-70
2024/01/25 02:02:13;;;;;;;5.20;2.50;;;;;;;6.27;89.80;99409.52;113164;239;38854;-70
2024/01/25 02:04:48;;;;;;;8.00;1.90;;;;;;;6.28;89.72;99405.65;113133;239;38290;-70
2024/01/25 02:07:21;;;;;;;10.60;2.90;;;;;;;6.31;89.73;99408.00;113155;239;38342;-70
2024/01/25 02:09:55;;;;;;;8.30;2.30;;;;;;;6.29;89.54;99403.20;113132;239;39537;-68
2024/01/25 02:12:29;;;;;;;9.00;2.30;;;;;;;6.27;89.46;99406.38;113138;239;39115;-68
2024/01/25 02:15:03;;;;;;;5.80;2.20;;;;;;;6.23;89.26;99407.41;113162;239;39013;-68
2024/01/25 02:17:37;;;;;;;6.70;2.00;;;;;;;6.20;89.13;99403.69;113137;239;39351;-67
2024/01/25 02:20:13;;;;;;;9.60;2.90;;;;;;;6.18;89.02;99397.67;113149;239;38878;-68
2024/01/25 02:22:47;;;;;;;7.30;2.50;;;;;;;6.19;89.18;99410.46;113138;239;39381;-68
2024/01/25 02:25:21;;;;;;;10.70;2.50;;;;;;;6.17;89.23;99417.12;113115;239;40157;-69
2024/01/25 02:27:55;;;;;;;8.00;2.30;;;;;;;6.16;89.40;99423.39;113141;239;39771;-70
2024/01/25 02:30:29;;;;;;;8.00;2.50;;;;;;;6.14;89.53;99427.26;113140;239;38415;-68
2024/01/25 02:33:02;;;;;;;6.70;2.10;;;;;;;6.11;89.48;99423.23;113126;239;39298;-68
2024/01/25 02:35:36;;;;;;;5.80;1.90;;;;;;;6.10;89.72;99424.82;113108;239;38550;-70
2024/01/25 02:38:10;;;;;;;8.00;2.40;;;;;;;6.12;89.95;99427.33;113148;239;40066;-70
2024/01/25 02:40:44;;;;;;;9.90;2.30;;;;;;;6.16;90.09;99429.28;113117;239;39281;-68
2024/01/25 02:43:18;;;;;;;8.30;2.80;;;;;;;6.15;90.07;99429.46;113152;239;38385;-68
2024/01/25 02:45:51;;;;;;;10.70;3.20;;;;;;;6.13;90.19;99430.92;113144;239;39927;-70
2024/01/25 02:48:25;;;;;;;13.70;3.30;;;;;;;6.13;90.26;99431.63;113133;239;38253;-70
2024/01/25 02:50:59;;;;;;;7.20;2.60;;;;;;;6.13;90.15;99427.31;113162;239;38399;-68
2024/01/25 02:53:33;;;;;;;4.90;2.00;;;;;;;6.11;90.06;99424.07;113128;239;38286;-68
2024/01/25 02:56:08;;;;;;;7.70;2.20;;;;;;;6.11;90.05;99424.45;113160;239;38956;-68
2024/01/25 02:58:41;;;;;;;9.30;2.50;;;;;;;6.12;90.23;99428.75;113170;239;38450;-68
2024/01/25 03:01:15;;;;;;;10.10;2.60;;;;;;;6.12;90.13;99427.52;113117;239;38906;-70
2024/01/25 03:03:50;;;;;;;7.10;2.10;;;;;;;6.08;90.19;99430.94;112985;239;174955;-70
2024/01/25 03:06:24;;;;;;;6.20;2.20;;;;;;;6.06;90.17;99436.36;112894;239;39823;-68
2024/01/25 03:08:58;;;;;;;6.50;2.40;;;;;;;6.05;90.16;99437.98;113118;239;40181;-68
2024/01/25 03:11:32;;;;;;;5.10;1.90;;;;;;;6.05;90.30;99434.16;113029;239;39821;-68
2024/01/25 03:14:05;;;;;;;7.50;2.00;;;;;;;6.06;90.29;99439.14;113114;239;38623;-70
2024/01/25 03:16:39;;;;;;;8.90;2.50;;;;;;;6.07;90.36;99447.06;113138;239;38454;-71
2024/01/25 03:19:13;;;;;;;9.00;2.10;;;;;;;6.05;90.40;99450.78;113167;239;38296;-69
2024/01/25 03:21:47;;;;;;;8.50;2.10;;;;;;;6.01;90.43;99447.29;113108;239;40178;-68
2024/01/25 03:24:20;;;;;;;5.00;1.80;;;;;;;5.98;90.48;99455.18;113140;239;38847;-68
2024/01/25 03:26:54;;;;;;;7.90;2.10;;;;;;;5.98;90.58;99452.93;112880;239;37993;-68
2024/01/25 03:29:28;;;;;;;7.30;2.70;;;;;;;5.99;90.71;99461.54;113151;239;39649;-70
2024/01/25 03:32:02;;;;;;;6.50;2.40;;;;;;;6.02;90.91;99458.52;113115;239;39698;-70
2024/01/25 03:34:36;;;;;;;9.10;2.60;;;;;;;6.06;91.03;99462.19;113147;239;38302;-70
2024/01/25 03:37:09;;;;;;;7.80;2.70;;;;;;;6.07;90.99;99461.98;113142;239;38507;-70
2024/01/25 03:39:43;;;;;;;8.00;2.00;;;;;;;6.06;91.00;99456.81;113136;239;40015;-70
2024/01/25 03:42:17;;;;;;;6.50;2.20;;;;;;;6.08;91.01;99454.67;113126;239;39180;-70
2024/01/25 03:44:51;;;;;;;6.30;1.90;;;;;;;6.07;90.81;99455.39;113135;239;38717;-70
2024/01/25 03:47:25;;;;;;;7.20;2.40;;;;;;;6.05;90.63;99453.20;113017;239;174891;-70
2024/01/25 03:49:59;;;;;;;9.60;2.50;;;;;;;6.06;90.74;99453.17;113144;239;38836;-68
2024/01/25 03:52:33;;;;;;;10.90;2.90;;;;;;;6.03;90.73;99453.61;113147;239;38322;-68
2024/01/25 03:55:09;;;;;;;9.00;2.40;;;;;;;6.02;90.82;99450.56;113129;239;39901;-68
2024/01/25 03:57:43;;;;;;;8.90;2.30;;;;;;;6.01;90.87;99451.45;113132;239;39532;-68
2024/01/25 04:00:19;;;;;;;5.30;2.00;;;;;;;6.02;90.78;99449.52;112998;239;174890;-70
2024/01/25 04:02:53;;;;;;;6.80;2.30;;;;;;;6.03;90.91;99448.94;113144;239;38807;-70
2024/01/25 04:05:27;;;;;;;5.40;1.90;;;;;;;6.06;90.75;99440.55;112462;239;908190;-68
2024/01/25 04:08:01;;;;;;;10.10;2.90;;;;;;;6.05;90.66;99442.48;113131;239;39330;-68
2024/01/25 04:10:35;;;;;;;12.30;2.90;;;;;;;6.03;90.60;99445.30;113147;239;38702;-70
2024/01/25 04:13:09;;;;;;;6.80;2.90;;;;;;;5.99;90.37;99443.55;113121;239;38260;-70
2024/01/25 04:15:43;;;;;;;9.80;2.10;;;;;;;5.95;90.30;99442.81;113161;239;38415;-70
2024/01/25 04:18:17;;;;;;;6.30;2.00;;;;;;;5.93;90.21;99450.86;113130;239;38583;-70
2024/01/25 04:20:50;;;;;;;10.90;2.70;;;;;;;5.93;90.43;99453.10;113148;239;38677;-70
2024/01/25 04:23:24;;;;;;;11.30;2.90;;;;;;;5.97;90.61;99454.01;113120;239;40137;-70
2024/01/25 04:25:58;;;;;;;11.30;3.30;;;;;;;5.99;90.39;99452.73;113144;239;40210;-69
2024/01/25 04:28:32;;;;;;;11.00;3.50;;;;;;;5.97;90.33;99458.33;112988;239;38331;-69
2024/01/25 04:31:06;;;;;;;12.80;3.10;;;;;;;5.96;90.26;99459.41;113121;239;38997;-70
2024/01/25 04:33:40;;;;;;;10.70;2.50;;;;;;;5.93;90.13;99463.12;113138;239;38377;-70
2024/01/25 04:36:14;;;;;;;7.30;2.30;;;;;;;5.91;90.04;99469.23;113153;239;38304;-70
2024/01/25 04:38:49;;;;;;;8.10;2.80;;;;;;;5.90;89.95;99471.86;113129;239;38325;-70
2024/01/25 04:41:22;;;;;;;11.00;3.90;;;;;;;5.87;89.86;99472.81;113127;239;38676;-68
2024/01/25 04:43:56;;;;;;;10.10;2.40;;;;;;;5.86;89.98;99476.31;113125;239;39616;-68
2024/01/25 04:46:35;;;;;;;7.40;2.60;;;;;;;5.85;90.04;99474.97;113124;239;38030;-68
2024/01/25 04:49:09;;;;;;;7.80;2.80;;;;;;;5.84;90.13;99471.18;113134;239;39335;-68
2024/01/25 04:51:43;;;;;;;9.20;2.60;;;;;;;5.84;90.01;99476.21;113150;239;38997;-67
2024/01/25 04:54:17;;;;;;;5.20;1.90;;;;;;;5.83;89.96;99480.94;113159;239;39479;-68
2024/01/25 04:56:50;;;;;;;4.80;2.10;;;;;;;5.83;89.79;99478.51;113139;239;38334;-68
2024/01/25 04:59:24;;;;;;;7.30;2.30;;;;;;;5.82;89.89;99478.02;113117;239;39793;-68
2024/01/25 05:01:58;;;;;;;10.80;2.30;;;;;;;5.82;89.72;99476.12;113141;239;38565;-68
2024/01/25 05:04:34;;;;;;;7.00;1.80;;;;;;;5.80;89.81;99478.77;113126;239;39742;-70
2024/01/25 05:07:08;;;;;;;4.10;1.50;;;;;;;5.79;89.67;99480.34;112690;239;288070;-70
2024/01/25 05:09:42;;;;;;;6.30;1.60;;;;;;;5.81;89.31;99488.45;113124;239;38703;-70
2024/01/25 05:12:15;;;;;;;5.50;1.60;;;;;;;5.78;89.07;99485.44;113143;239;38341;-70
2024/01/25 05:14:49;;;;;;;8.80;2.30;;;;;;;5.77;89.22;99480.43;113127;239;38234;-70
2024/01/25 05:17:23;;;;;;;6.90;1.80;;;;;;;5.74;88.93;99482.42;113139;239;38263;-70
2024/01/25 05:19:57;;;;;;;5.20;1.50;;;;;;;5.74;89.15;99487.98;113141;239;38660;-69
2024/01/25 05:22:31;;;;;;;5.60;1.90;;;;;;;5.74;88.87;99482.95;113110;239;39014;-70
2024/01/25 05:25:06;;;;;;;4.50;1.80;;;;;;;5.71;88.62;99487.54;113137;239;40067;-68
2024/01/25 05:27:40;;;;;;;6.40;2.10;;;;;;;5.70;88.55;99482.87;112434;239;908383;-68
2024/01/25 05:30:15;;;;;;;6.50;2.10;;;;;;;5.72;88.53;99486.31;113134;239;37957;-70
2024/01/25 05:32:49;;;;;;;6.90;2.40;;;;;;;5.69;88.38;99490.88;113133;239;40038;-69
2024/01/25 05:35:23;;;;;;;5.20;1.80;;;;;;;5.68;88.44;99498.52;113143;239;39770;-69
2024/01/25 05:37:57;;;;;;;10.70;3.00;;;;;;;5.68;88.43;99500.60;113165;239;39721;-69
2024/01/25 05:40:31;;;;;;;7.60;1.80;;;;;;;5.70;88.32;99502.29;113151;239;39009;-69
2024/01/25 05:43:05;;;;;;;8.40;2.60;;;;;;;5.70;88.10;99500.52;113136;239;38591;-70
2024/01/25 05:45:39;;;;;;;8.00;2.00;;;;;;;5.70;88.04;99506.94;113141;239;38656;-69
2024/01/25 05:48:13;;;;;;;9.50;2.50;;;;;;;5.67;87.99;99507.22;113134;239;38602;-68
2024/01/25 05:50:46;;;;;;;7.40;2.90;;;;;;;5.66;88.20;99511.91;113137;239;38905;-69
2024/01/25 05:53:21;;;;;;;7.80;2.40;;;;;;;5.66;88.12;99516.58;113120;239;39015;-70
2024/01/25 05:55:55;;;;;;;6.40;1.80;;;;;;;5.67;87.91;99513.79;113164;239;38326;-67
2024/01/25 05:58:28;;;;;;;6.20;1.90;;;;;;;5.69;88.03;99519.77;113159;239;38929;-67
2024/01/25 06:01:02;;;;;;;8.40;2.20;;;;;;;5.72;87.91;99520.21;113132;239;39674;-67
2024/01/25 06:03:36;;;;;;;11.20;2.60;;;;;;;5.69;87.66;99521.16;113005;239;189173;-67
2024/01/25 06:06:10;;;;;;;5.90;1.80;;;;;;;5.69;87.86;99525.30;113158;239;39604;-70
2024/01/25 06:08:44;;;;;;;7.50;2.20;;;;;;;5.70;87.60;99530.82;113127;239;39744;-70
2024/01/25 06:11:18;;;;;;;5.30;1.60;;;;;;;5.69;87.52;99539.84;113166;239;38248;-69
2024/01/25 06:13:52;;;;;;;7.50;1.90;;;;;;;5.70;87.44;99534.11;113030;239;189132;-69
2024/01/25 06:16:26;;;;;;;7.80;2.70;;;;;;;5.70;87.27;99541.37;113173;239;38736;-70
2024/01/25 06:19:01;;;;;;;8.80;2.40;;;;;;;5.70;87.34;99539.14;113132;239;39168;-69
2024/01/25 06:21:37;;;;;;;6.30;1.70;;;;;;;5.70;87.34;99550.36;113124;239;38890;-70
2024/01/25 06:24:11;;;;;;;7.30;2.10;;;;;;;5.71;87.16;99550.89;113127;239;39161;-68
2024/01/25 06:26:45;;;;;;;5.30;1.90;;;;;;;5.70;86.99;99542.76;113169;239;38430;-68
2024/01/25 06:29:18;;;;;;;9.00;2.20;;;;;;;5.71;87.12;99542.92;113148;239;38592;-68
2024/01/25 06:31:52;;;;;;;6.80;2.30;;;;;;;5.73;87.08;99543.02;113138;239;38420;-68
2024/01/25 06:34:26;;;;;;;7.60;2.20;;;;;;;5.74;86.97;99539.71;113152;239;38354;-69
2024/01/25 06:37:00;;;;;;;5.00;1.90;;;;;;;5.74;86.84;99542.15;113154;239;38471;-70
2024/01/25 06:39:34;;;;;;;7.90;2.70;;;;;;;5.73;86.83;99550.14;113152;239;38418;-69
2024/01/25 06:42:08;;;;;;;5.00;2.10;;;;;;;5.74;86.91;99545.27;112906;239;40098;-70
2024/01/25 06:44:42;;;;;;;8.10;2.30;;;;;;;5.74;87.08;99539.70;113168;239;38629;-69
2024/01/25 06:47:16;;;;;;;6.80;1.90;;;;;;;5.76;87.43;99550.02;113101;239;38664;-70
2024/01/25 06:49:51;;;;;;;7.80;2.20;;;;;;;5.77;87.47;99551.40;113034;239;174847;-69
2024/01/25 06:52:25;;;;;;;6.60;2.60;;;;;;;5.74;87.56;99550.29;113128;239;38998;-69
2024/01/25 06:54:59;;;;;;;4.30;1.40;;;;;;;5.73;87.76;99546.85;113146;239;38300;-70
2024/01/25 06:57:33;;;;;;;4.10;1.60;;;;;;;5.74;87.90;99552.35;113150;239;38222;-70
2024/01/25 07:00:12;;;;;;;6.20;2.10;;;;;;;5.75;88.08;99558.72;113148;239;37945;-68
2024/01/25 07:02:46;;;;;;;4.70;1.80;;;;;;;5.79;88.26;99562.04;113195;239;39758;-68
2024/01/25 07:05:20;;;;;;;6.50;2.30;;;;;;;5.80;88.30;99560.81;113142;239;39524;-69
2024/01/25 07:07:54;;;;;;;9.30;2.10;;;;;;;5.77;88.45;99561.24;113129;239;39784;-68
2024/01/25 07:10:27;;;;;;;6.20;2.10;;;;;;;5.76;88.66;99572.17;113163;239;39470;-67
2024/01/25 07:13:01;;;;;;;6.00;2.30;;;;;;;5.78;88.70;99573.34;113123;239;38832;-67
2024/01/25 07:15:35;;;;;;;5.50;1.60;;;;;;;5.79;88.82;99580.05;113136;239;39723;-71
2024/01/25 07:18:09;;;;;;;4.50;1.80;;;;;;;5.80;88.91;99572.41;113127;239;38793;-70
2024/01/25 07:20:44;;;;;;;6.10;2.90;;;;;;;5.83;89.03;99573.36;113173;239;38922;-68
2024/01/25 07:23:18;;;;;;;9.20;2.90;;;;;;;5.85;89.10;99577.77;113118;239;38813;-68
2024/01/25 07:25:51;;;;;;;5.10;1.80;;;;;;;5.83;89.17;99581.66;113145;239;38852;-69
2024/01/25 07:28:26;;;;;;;4.50;2.40;;;;;;;5.82;89.27;99581.52;113129;239;38373;-69
2024/01/25 07:30:59;;;;;;;3.80;1.30;;;;;;;5.83;89.29;99582.52;113048;239;175012;-68
2024/01/25 07:33:34;;;;;;;4.80;1.30;;;;;;;5.83;89.40;99580.77;113136;239;38865;-68
2024/01/25 07:36:09;;;;;;;5.30;1.90;;;;;;;5.81;89.28;99586.57;113164;239;38395;-70
2024/01/25 07:38:43;;;;;;;5.60;1.50;;;;;;;5.81;89.61;99589.84;112899;239;41315;-70
2024/01/25 07:41:16;;;;;;;4.80;1.40;;;;;;;5.82;89.72;99592.41;113167;239;38274;-70
2024/01/25 07:43:54;;;;;;;3.60;1.30;;;;;;;5.80;89.73;99588.48;113142;239;38411;-70
2024/01/25 07:46:28;;;;;;;5.00;1.30;;;;;;;5.80;89.78;99590.73;113157;239;38364;-70
2024/01/25 07:49:02;;;;;;;6.50;1.90;;;;;;;5.83;89.86;99589.27;113164;239;39447;-69
2024/01/25 07:51:36;;;;;;;3.00;1.40;;;;;;;5.88;90.06;99587.91;113173;239;38478;-69
2024/01/25 07:54:10;;;;;;;4.20;1.60;;;;;;;5.90;89.70;99590.61;113156;239;39703;-69
2024/01/25 07:56:44;;;;;;;5.00;1.40;;;;;;;5.90;89.89;99590.96;113125;239;38573;-68
2024/01/25 07:59:17;;;;;;;3.80;1.40;;;;;;;5.89;89.95;99591.15;113153;239;38419;-68
2024/01/25 08:01:51;;;;;;;4.40;1.60;;;;;;;5.89;89.85;99595.33;113135;239;38533;-68
2024/01/25 08:04:25;;;;;;;4.00;1.40;;;;;;;5.84;89.93;99594.77;113145;239;38320;-68
2024/01/25 08:06:59;;;;;;;5.20;1.80;;;;;;;5.83;89.97;99600.87;113117;239;38805;-68
2024/01/25 08:09:32;;;;;;;3.70;1.70;;;;;;;5.85;90.02;99601.14;113157;239;38344;-69
2024/01/25 08:12:07;;;;;;;2.80;1.30;;;;;;;5.88;90.12;99603.14;112447;239;908648;-70
2024/01/25 08:14:42;;;;;;;3.60;1.10;;;;;;;5.88;90.04;99606.23;113129;239;38981;-70
2024/01/25 08:17:16;;;;;;;4.00;1.70;;;;;;;5.83;89.77;99603.81;113168;239;39253;-70
2024/01/25 08:19:50;;;;;;;5.30;1.90;;;;;;;5.75;89.96;99603.86;113156;239;38583;-68
2024/01/25 08:22:24;;;;;;;3.30;1.20;;;;;;;5.74;90.10;99608.42;113161;239;38235;-68
2024/01/25 08:24:58;;;;;;;2.50;1.00;;;;;;;5.77;90.42;99599.85;113174;239;39456;-68
2024/01/25 08:27:32;;;;;;;3.60;1.90;;;;;;;5.81;90.47;99615.81;113109;239;38277;-68
2024/01/25 08:30:07;;;;;;;5.60;2.20;;;;;;;5.86;90.56;99612.38;113150;239;38996;-70
2024/01/25 08:32:41;;;;;;;3.30;1.20;;;;;;;5.87;90.49;99613.38;113127;239;38918;-70
2024/01/25 08:35:15;;;;;;;5.60;1.60;;;;;;;5.88;90.49;99617.48;113132;239;38489;-70
2024/01/25 08:37:49;;;;;;;4.60;1.60;;;;;;;5.85;90.53;99618.09;113127;239;39472;-70
2024/01/25 08:40:24;;;;;;;3.90;1.40;;;;;;;5.88;90.71;99621.84;113159;239;39969;-68
2024/01/25 08:42:57;;;;;;;3.60;1.10;;;;;;;5.88;90.43;99621.50;113159;239;38628;-68
2024/01/25 08:45:31;;;;;;;2.80;1.50;;;;;;;5.90;90.62;99626.10;113142;239;39978;-70
2024/01/25 08:48:06;;;;;;;3.50;1.20;;;;;;;5.93;90.67;99626.88;113041;239;172308;-71
2024/01/25 08:50:40;;;;;;;3.40;1.40;;;;;;;5.97;90.68;99630.95;113153;239;38214;-70
2024/01/25 08:53:13;;;;;;;2.10;1.20;;;;;;;5.97;90.58;99633.72;113161;239;39067;-70
2024/01/25 08:55:47;;;;;;;2.10;1.10;;;;;;;5.93;90.49;99634.34;113157;239;39800;-70
2024/01/25 08:58:21;;;;;;;2.30;0.90;;;;;;;5.90;90.50;99642.69;113121;239;39577;-70
2024/01/25 09:00:55;;;;;;;2.00;1.10;;;;;;;5.88;90.50;99646.73;113180;239;39552;-68
2024/01/25 09:03:29;;;;;;;2.10;1.40;;;;;;;5.87;90.57;99655.08;113145;239;38350;-68
2024/01/25 09:06:05;;;;;;;1.70;1.30;;;;;;;5.89;90.82;99657.95;113156;239;38407;-68
2024/01/25 09:08:38;;;;;;;3.50;1.90;;;;;;;5.92;91.02;99663.10;113149;239;39465;-68
2024/01/25 09:11:12;;;;;;;2.40;1.40;;;;;;;5.93;91.00;99671.73;112885;239;38758;-70
2024/01/25 09:13:47;;;;;;;3.60;1.40;;;;;;;5.90;91.07;99677.30;113153;239;39728;-70
2024/01/25 09:16:24;;;;;;;2.20;1.60;;;;;;;5.91;91.29;99681.30;113134;239;38392;-68
2024/01/25 09:18:58;;;;;;;1.60;1.20;;;;;;;5.91;91.41;99687.52;113149;239;39120;-68
2024/01/25 09:21:32;;;;;;;2.40;1.30;;;;;;;5.94;91.37;99689.36;113143;239;38420;-68
2024/01/25 09:24:07;;;;;;;3.20;1.40;;;;;;;5.94;91.43;99686.04;113161;239;39642;-69
2024/01/25 09:26:40;;;;;;;2.40;1.60;;;;;;;5.94;91.39;99692.96;113123;239;38369;-70
2024/01/25 09:29:14;;;;;;;2.80;1.40;;;;;;;5.96;91.57;99700.02;113146;239;38922;-68
2024/01/25 09:31:48;;;;;;;3.70;1.70;;;;;;;5.96;91.65;99697.79;113142;239;39706;-68
2024/01/25 09:34:22;;;;;;;1.90;1.60;;;;;;;5.95;91.70;99706.63;113121;239;38362;-69
2024/01/25 09:36:56;;;;;;;2.20;1.60;;;;;;;5.94;91.72;99702.51;113173;239;38391;-70
2024/01/25 09:39:29;;;;;;;2.30;1.40;;;;;;;5.96;91.92;99704.20;113168;239;38571;-68
2024/01/25 09:42:04;;;;;;;3.50;1.90;;;;;;;6.01;92.05;99705.09;113133;239;38506;-68
2024/01/25 09:44:37;;;;;;;2.90;2.20;;;;;;;6.04;92.26;99714.87;113139;239;38826;-70
2024/01/25 09:47:11;;;;;;;2.10;1.90;;;;;;;6.04;92.14;99722.84;113165;239;38840;-70
2024/01/25 09:49:46;;;;;;;2.60;1.70;;;;;;;6.01;92.04;99727.41;113136;239;38695;-70
2024/01/25 09:52:20;;;;;;;1.80;1.20;;;;;;;6.01;92.26;99727.08;113145;239;40005;-70
2024/01/25 09:54:54;;;;;;;2.80;1.80;;;;;;;6.00;92.21;99727.77;113182;239;39108;-68
2024/01/25 09:57:30;;;;;;;2.90;1.50;;;;;;;6.04;92.33;99728.36;113147;239;39043;-68
2024/01/25 10:00:05;;;;;;;2.10;1.40;;;;;;;6.10;92.55;99730.27;113145;239;38440;-70
2024/01/25 10:02:39;;;;;;;2.30;1.60;;;;;;;6.17;92.66;99735.24;113163;239;38965;-70
2024/01/25 10:05:14;;;;;;;1.90;1.30;;;;;;;6.17;92.33;99742.52;112975;239;38539;-68
2024/01/25 10:07:48;;;;;;;2.30;1.50;;;;;;;6.17;92.35;99740.60;113160;239;38465;-68
2024/01/25 10:10:22;;;;;;;3.30;1.60;;;;;;;6.15;91.96;99747.25;113169;239;38504;-70
2024/01/25 10:12:57;;;;;;;1.60;1.30;;;;;;;6.14;92.02;99753.50;113139;239;39756;-70
2024/01/25 10:15:31;;;;;;;1.70;1.10;;;;;;;6.16;91.99;99754.14;113161;239;38926;-70
2024/01/25 10:18:07;;;;;;;3.20;1.80;;;;;;;6.18;91.78;99755.28;113134;239;38464;-70
2024/01/25 10:20:41;;;;;;;4.10;2.40;;;;;;;6.18;91.81;99758.41;113125;239;38822;-68
2024/01/25 10:23:15;;;;;;;3.40;1.50;;;;;;;6.18;91.87;99759.13;113154;239;40097;-68
2024/01/25 10:25:48;;;;;;;3.80;1.80;;;;;;;6.15;92.00;99764.73;113131;239;38965;-70
2024/01/25 10:28:22;;;;;;;2.40;1.30;;;;;;;6.15;91.99;99763.86;113164;239;40606;-70
2024/01/25 10:30:58;;;;;;;3.30;1.50;;;;;;;6.16;92.02;99757.79;113121;239;39466;-68
2024/01/25 10:33:32;;;;;;;1.90;1.30;;;;;;;6.21;92.00;99759.55;113125;239;39482;-68
2024/01/25 10:36:07;;;;;;;2.60;1.70;;;;;;;6.25;91.87;99765.32;113134;239;38906;-70
2024/01/25 10:38:41;;;;;;;3.40;1.40;;;;;;;6.32;92.19;99769.44;113167;239;38449;-70
2024/01/25 10:41:15;;;;;;;2.00;1.30;;;;;;;6.38;92.34;99771.31;113121;239;38657;-68
2024/01/25 10:43:49;;;;;;;1.80;1.10;;;;;;;6.43;92.16;99772.05;113121;239;38549;-68
2024/01/25 10:46:23;;;;;;;2.30;0.90;;;;;;;6.46;91.90;99772.30;113149;239;38317;-70
2024/01/25 10:48:57;;;;;;;1.50;1.10;;;;;;;6.48;91.54;99772.73;113147;239;39130;-69
2024/01/25 10:51:31;;;;;;;2.50;1.10;;;;;;;6.53;91.43;99772.95;113165;239;38302;-70
2024/01/25 10:54:06;;;;;;;1.60;1.20;;;;;;;6.56;91.26;99783.42;113149;239;39910;-69
2024/01/25 10:56:40;;;;;;;3.10;1.10;;;;;;;6.59;91.08;99786.95;113136;239;39738;-70
2024/01/25 10:59:15;;;;;;;2.10;1.10;;;;;;;6.57;90.55;99781.66;113119;239;38014;-68
2024/01/25 11:01:49;;;;;;;2.30;1.20;;;;;;;6.56;90.33;99789.17;113161;239;38475;-68
2024/01/25 11:04:23;;;;;;;2.60;1.10;;;;;;;6.60;90.62;99784.70;113159;239;39383;-68
2024/01/25 11:07:05;;;;;;;2.10;1.20;;;;;;;6.65;90.47;99786.45;113133;239;38534;-68
2024/01/25 11:09:39;;;;;;;3.30;1.40;;;;;;;6.65;90.11;99779.86;113144;239;38259;-70
2024/01/25 11:12:17;;;;;;;2.00;1.10;;;;;;;6.64;89.71;99788.55;112449;239;907357;-70
2024/01/25 11:14:58;;;;;;;2.70;1.30;;;;;;;6.63;89.68;99787.89;113112;239;39637;-68
2024/01/25 11:17:32;;;;;;;1.50;1.10;;;;;;;6.62;89.56;99793.98;113135;239;38517;-68
2024/01/25 11:20:08;;;;;;;1.80;0.90;;;;;;;6.62;89.60;99794.50;113152;239;38353;-69
2024/01/25 11:22:41;;;;;;;2.30;1.20;;;;;;;6.65;89.37;99795.80;113141;239;38385;-70
2024/01/25 11:25:23;;;;;;;2.70;1.20;;;;;;;6.64;89.23;99802.92;113136;239;40018;-68
2024/01/25 11:27:57;;;;;;;3.10;1.60;;;;;;;6.65;89.05;99805.86;113126;239;38625;-68
2024/01/25 11:30:33;;;;;;;4.40;2.40;;;;;;;6.63;89.00;99810.05;113154;239;38249;-71
2024/01/25 11:33:09;;;;;;;2.40;1.40;;;;;;;6.63;88.67;99810.25;113144;239;38846;-70
2024/01/25 11:35:43;;;;;;;2.70;2.00;;;;;;;6.64;88.88;99815.05;113154;239;38262;-68
2024/01/25 11:38:17;;;;;;;2.30;1.60;;;;;;;6.67;88.48;99812.20;113161;239;38323;-68
2024/01/25 11:40:51;;;;;;;2.40;1.60;;;;;;;6.71;88.62;99814.67;113118;239;38887;-70
2024/01/25 11:43:24;;;;;;;3.20;1.50;;;;;;;6.73;88.52;99822.77;113146;239;39800;-70
2024/01/25 11:45:58;;;;;;;3.10;1.40;;;;;;;6.75;88.72;99823.73;113152;239;39203;-70
2024/01/25 11:48:32;;;;;;;4.90;1.90;;;;;;;6.78;88.40;99831.63;113145;239;38800;-70
2024/01/25 11:51:06;;;;;;;3.30;1.80;;;;;;;6.79;88.36;99832.10;113146;239;38804;-70
2024/01/25 11:53:40;;;;;;;3.20;1.40;;;;;;;6.83;88.17;99839.80;112944;239;38067;-70
2024/01/25 11:56:16;;;;;;;2.30;1.30;;;;;;;6.85;87.75;99840.44;113124;239;39396;-69
2024/01/25 11:58:51;;;;;;;3.50;2.10;;;;;;;6.87;87.45;99843.48;113151;239;38891;-70
2024/01/25 12:01:25;;;;;;;2.40;1.60;;;;;;;6.82;86.86;99846.05;113114;239;39761;-70
2024/01/25 12:03:59;;;;;;;2.00;1.30;;;;;;;6.75;86.90;99853.91;113133;239;38431;-68
2024/01/25 12:06:33;;;;;;;4.90;1.80;;;;;;;6.70;87.37;99860.29;113140;239;38697;-68
2024/01/25 12:09:14;;;;;;;3.40;1.60;;;;;;;6.68;87.40;99866.05;113148;239;38712;-68
2024/01/25 12:11:51;;;;;;;2.50;1.50;;;;;;;6.66;87.74;99872.02;113127;239;39656;-68
2024/01/25 12:14:28;;;;;;;2.90;1.30;;;;;;;6.64;87.92;99877.45;113166;239;38852;-68